Time;durP1;ratioP1;P1;durP2;ratioP2;P2;SDS_P1;SDS_P2;PMS_P1;PMS_P2;Temp;Humidity;BMP_temperature;BMP_pressure;BME280_temperature;BME280_humidity;BME280_pressure;Samples;Min_cycle;Max_cycle;Signal;HPM_P1;HPM_P2
2024/03/11 00:00:28;;;;;;;2.63;2.43;;;;;;;11.15;59.51;95781.94;5022589;28;21167;-72
2024/03/11 00:02:54;;;;;;;2.93;2.73;;;;;;;11.24;59.15;95787.03;5032812;28;20826;-71
2024/03/11 00:05:20;;;;;;;2.47;2.27;;;;;;;11.15;59.52;95786.38;5030162;28;20180;-71
2024/03/11 00:07:46;;;;;;;2.67;2.47;;;;;;;11.16;59.57;95791.44;5036254;28;20636;-70
2024/03/11 00:10:12;;;;;;;3.10;2.90;;;;;;;10.96;60.08;95793.91;5037974;28;20419;-69
2024/03/11 00:12:53;;;;;;;3.10;2.50;;;;;;;10.80;60.14;95802.00;5028424;28;20676;-70
2024/03/11 00:15:23;;;;;;;2.27;2.17;;;;;;;10.95;60.35;95797.50;5035131;28;20457;-69
2024/03/11 00:17:49;;;;;;;2.80;2.60;;;;;;;10.88;60.30;95801.91;5033144;28;20512;-70
2024/03/11 00:20:15;;;;;;;2.80;2.60;;;;;;;11.05;59.89;95813.72;5031098;28;20919;-70
2024/03/11 00:22:40;;;;;;;2.97;2.77;;;;;;;11.02;59.92;95813.28;5042708;28;20422;-70
2024/03/11 00:25:06;;;;;;;2.60;2.40;;;;;;;11.04;59.70;95814.72;5025926;28;20267;-70
2024/03/11 00:27:36;;;;;;;2.73;2.53;;;;;;;11.09;59.88;95813.34;5033485;28;20206;-71
2024/03/11 00:30:11;;;;;;;2.80;2.60;;;;;;;10.96;59.84;95822.72;5045582;28;20414;-71
2024/03/11 00:32:45;;;;;;;3.00;2.80;;;;;;;11.07;59.84;95826.66;5027796;28;20493;-71
2024/03/11 00:35:11;;;;;;;2.87;2.67;;;;;;;11.00;60.04;95829.22;5034161;28;20445;-70
2024/03/11 00:37:37;;;;;;;2.77;2.57;;;;;;;10.94;60.19;95835.22;5033479;28;20441;-73
2024/03/11 00:40:07;;;;;;;2.90;2.70;;;;;;;10.99;60.08;95837.25;5026054;28;20415;-67
2024/03/11 00:42:38;;;;;;;2.63;2.43;;;;;;;11.05;59.78;95834.69;5029325;28;20493;-70
2024/03/11 00:45:10;;;;;;;3.50;3.20;;;;;;;11.04;59.68;95827.81;5029867;28;20485;-69
2024/03/11 00:47:35;;;;;;;3.07;2.70;;;;;;;11.14;59.87;95832.75;5027394;28;20457;-69
2024/03/11 00:50:06;;;;;;;2.83;2.63;;;;;;;11.14;59.77;95839.81;5037353;28;20422;-71
2024/03/11 00:52:32;;;;;;;2.80;2.60;;;;;;;11.05;59.71;95854.88;5028678;28;20172;-68
2024/03/11 00:54:57;;;;;;;2.73;2.53;;;;;;;11.12;59.48;95852.31;5037171;28;20482;-70
2024/03/11 00:57:25;;;;;;;2.67;2.47;;;;;;;11.04;59.97;95858.50;5044177;28;20430;-71
2024/03/11 00:59:51;;;;;;;2.70;2.50;;;;;;;11.12;59.72;95850.47;5028130;28;20625;-70
2024/03/11 01:02:16;;;;;;;3.17;2.97;;;;;;;11.18;59.22;95862.84;5029887;28;20538;-69
2024/03/11 01:04:42;;;;;;;2.57;2.37;;;;;;;10.97;59.43;95860.22;5042346;28;20561;-70
2024/03/11 01:07:08;;;;;;;2.40;2.20;;;;;;;11.05;59.40;95863.53;5027465;28;20202;-70
2024/03/11 01:09:33;;;;;;;2.80;2.60;;;;;;;11.11;59.21;95864.59;5029037;28;20176;-70
2024/03/11 01:11:59;;;;;;;3.30;3.00;;;;;;;11.17;59.23;95863.84;5032030;28;20422;-70
2024/03/11 01:14:25;;;;;;;2.50;2.30;;;;;;;11.09;59.00;95869.22;5030293;28;20291;-70
2024/03/11 01:16:51;;;;;;;2.63;2.40;;;;;;;11.10;59.11;95877.91;5029548;28;20592;-71
2024/03/11 01:19:20;;;;;;;3.63;2.30;;;;;;;11.09;58.79;95878.91;5029625;28;20275;-70
2024/03/11 01:21:48;;;;;;;2.80;2.40;;;;;;;11.16;58.80;95880.59;5034147;28;20594;-68
2024/03/11 01:24:16;;;;;;;2.27;2.07;;;;;;;11.21;58.72;95890.50;5038996;28;20425;-69
2024/03/11 01:26:47;;;;;;;4.30;2.23;;;;;;;11.11;58.64;95896.06;5028133;28;20930;-70
2024/03/11 01:29:14;;;;;;;2.50;2.30;;;;;;;11.03;58.42;95890.94;5028354;28;20454;-68
2024/03/11 01:31:42;;;;;;;2.70;2.50;;;;;;;11.08;58.56;95896.44;5029028;28;20479;-71
2024/03/11 01:34:08;;;;;;;2.30;2.10;;;;;;;10.95;58.63;95886.63;5023634;28;20422;-70
2024/03/11 01:36:36;;;;;;;2.30;2.10;;;;;;;11.10;58.60;95902.28;5026948;28;20499;-72
2024/03/11 01:39:08;;;;;;;2.20;2.10;;;;;;;11.14;58.28;95900.13;5033821;28;20422;-70
2024/03/11 01:41:36;;;;;;;2.03;1.93;;;;;;;11.09;58.16;95892.81;5031838;28;20462;-71
2024/03/11 01:44:02;;;;;;;1.90;1.80;;;;;;;11.12;58.13;95899.50;5028765;28;20422;-70
2024/03/11 01:46:27;;;;;;;2.27;2.07;;;;;;;10.98;58.03;95902.00;5032912;28;20433;-71
2024/03/11 01:48:53;;;;;;;2.23;2.10;;;;;;;11.09;57.78;95905.91;5026971;28;20185;-71
2024/03/11 01:51:21;;;;;;;2.40;2.00;;;;;;;11.09;57.83;95911.16;5038988;28;20278;-70
2024/03/11 01:53:47;;;;;;;2.13;1.90;;;;;;;10.90;58.34;95909.97;5031383;28;20508;-70
2024/03/11 01:56:12;;;;;;;2.70;2.50;;;;;;;10.88;58.10;95904.13;5027618;28;20419;-71
2024/03/11 01:58:40;;;;;;;1.87;1.77;;;;;;;11.01;57.98;95906.03;5042737;28;20204;-71
2024/03/11 02:01:07;;;;;;;3.40;2.00;;;;;;;10.92;57.92;95902.72;5027177;28;20290;-68
2024/03/11 02:03:33;;;;;;;2.10;1.90;;;;;;;10.98;57.85;95904.63;5038894;28;20918;-71
2024/03/11 02:05:58;;;;;;;2.30;2.10;;;;;;;11.02;57.71;95902.44;5028905;28;20432;-70
2024/03/11 02:08:24;;;;;;;1.80;1.70;;;;;;;10.95;57.43;95894.50;5025998;28;20888;-69
2024/03/11 02:10:49;;;;;;;2.40;1.87;;;;;;;10.89;58.00;95890.81;5031947;28;20175;-72
2024/03/11 02:13:14;;;;;;;2.07;1.70;;;;;;;10.94;58.03;95892.06;5036832;28;20222;-70
2024/03/11 02:15:42;;;;;;;2.23;2.03;;;;;;;10.97;57.89;95889.06;5036670;28;20202;-71
2024/03/11 02:18:08;;;;;;;1.93;1.83;;;;;;;11.03;57.88;95891.75;5031703;28;20215;-71
2024/03/11 02:20:36;;;;;;;2.53;1.50;;;;;;;11.01;57.32;95898.19;5018790;28;20461;-71
2024/03/11 02:23:06;;;;;;;1.70;1.60;;;;;;;10.97;57.52;95899.53;5030049;28;20423;-69
2024/03/11 02:25:31;;;;;;;2.10;1.90;;;;;;;10.99;57.41;95897.56;5028274;28;20428;-72
2024/03/11 02:27:58;;;;;;;1.80;1.60;;;;;;;10.95;57.41;95904.97;5027908;28;20962;-70
2024/03/11 02:30:24;;;;;;;2.40;1.50;;;;;;;10.91;57.11;95917.66;5027711;28;20653;-71
2024/03/11 02:32:50;;;;;;;1.90;1.80;;;;;;;10.93;57.25;95906.97;5031408;28;20472;-69
2024/03/11 02:35:16;;;;;;;2.03;1.77;;;;;;;10.90;57.28;95916.03;5028080;28;20430;-70
2024/03/11 02:37:43;;;;;;;2.00;1.90;;;;;;;10.71;58.05;95906.16;5043837;28;20258;-71
2024/03/11 02:40:10;;;;;;;1.80;1.70;;;;;;;10.79;57.47;95919.13;5038246;28;20198;-70
2024/03/11 02:42:36;;;;;;;2.30;2.10;;;;;;;10.86;57.41;95909.53;5041453;28;20426;-71
2024/03/11 02:45:05;;;;;;;1.77;1.67;;;;;;;10.82;57.28;95916.16;5046560;28;20425;-71
2024/03/11 02:47:33;;;;;;;2.73;2.17;;;;;;;10.87;57.55;95920.84;5026842;28;20458;-71
2024/03/11 02:49:59;;;;;;;2.73;1.80;;;;;;;10.89;57.37;95924.09;5045104;28;20797;-69
2024/03/11 02:52:24;;;;;;;1.57;1.47;;;;;;;10.84;57.39;95921.19;5030616;28;20455;-70
2024/03/11 02:54:53;;;;;;;2.03;1.83;;;;;;;10.74;57.44;95932.78;5039096;28;20314;-68
2024/03/11 02:57:18;;;;;;;1.77;1.67;;;;;;;10.79;58.15;95934.03;5031509;28;20671;-69
2024/03/11 02:59:44;;;;;;;2.10;1.90;;;;;;;10.79;57.62;95940.09;5031318;28;20438;-71
2024/03/11 03:02:10;;;;;;;2.90;1.80;;;;;;;10.73;57.49;95936.41;5031007;28;20207;-71
2024/03/11 03:04:35;;;;;;;1.67;1.57;;;;;;;10.81;57.46;95940.72;5048616;28;20213;-72
2024/03/11 03:07:01;;;;;;;2.17;1.60;;;;;;;10.84;57.42;95944.78;5034305;28;20199;-70
2024/03/11 03:09:27;;;;;;;1.53;1.33;;;;;;;10.80;57.25;95941.72;5031131;28;20196;-72
2024/03/11 03:11:54;;;;;;;3.63;1.50;;;;;;;10.75;57.00;95949.31;5038105;28;20263;-70
2024/03/11 03:14:19;;;;;;;1.27;1.17;;;;;;;10.80;57.38;95949.59;5031047;28;20947;-69
2024/03/11 03:16:45;;;;;;;1.70;1.60;;;;;;;10.75;57.14;95955.38;5034385;28;20484;-70
2024/03/11 03:19:10;;;;;;;2.20;2.00;;;;;;;10.72;57.23;95950.50;5043256;28;20176;-71
2024/03/11 03:21:36;;;;;;;2.20;2.00;;;;;;;10.68;57.08;95954.47;5032982;28;20223;-70
2024/03/11 03:24:02;;;;;;;2.10;1.80;;;;;;;10.61;57.42;95948.34;5035666;28;20266;-71
2024/03/11 03:26:28;;;;;;;1.97;1.77;;;;;;;10.57;57.73;95953.16;5031220;28;20196;-68
2024/03/11 03:28:54;;;;;;;2.00;1.90;;;;;;;10.63;57.70;95961.25;5037904;28;20187;-71
2024/03/11 03:31:23;;;;;;;2.87;1.90;;;;;;;10.53;57.10;95962.38;5039025;28;20832;-71
2024/03/11 03:33:51;;;;;;;1.50;1.37;;;;;;;10.50;57.76;95962.72;5031197;28;20186;-70
2024/03/11 03:36:18;;;;;;;2.07;1.60;;;;;;;10.43;57.64;95962.63;5042555;28;20857;-67
2024/03/11 03:38:44;;;;;;;1.87;1.37;;;;;;;10.45;57.28;95960.66;5030624;28;20458;-72
2024/03/11 03:41:10;;;;;;;2.90;1.60;;;;;;;10.45;57.54;95971.13;5030950;28;20472;-70
2024/03/11 03:43:35;;;;;;;1.77;1.30;;;;;;;10.47;57.53;95963.09;5032588;28;20179;-71
2024/03/11 03:46:01;;;;;;;2.30;1.43;;;;;;;10.48;57.39;95966.53;5040601;28;20641;-69
2024/03/11 03:48:26;;;;;;;2.37;1.97;;;;;;;10.48;57.49;95969.94;5030642;28;20864;-70
2024/03/11 03:50:53;;;;;;;2.07;1.87;;;;;;;10.48;56.88;95963.91;5037946;28;20512;-71
2024/03/11 03:53:18;;;;;;;1.77;1.67;;;;;;;10.49;57.31;95973.41;5034605;28;20180;-69
2024/03/11 03:55:44;;;;;;;2.20;1.77;;;;;;;10.44;57.39;95979.19;5032575;28;20434;-70
2024/03/11 03:58:10;;;;;;;3.43;1.83;;;;;;;10.43;57.06;95972.31;5036154;28;20203;-71
2024/03/11 04:00:39;;;;;;;2.13;1.67;;;;;;;10.47;56.85;95978.78;5030369;28;20680;-70
2024/03/11 04:03:04;;;;;;;1.57;1.47;;;;;;;10.51;56.86;95979.28;5042298;28;20540;-69
2024/03/11 04:05:30;;;;;;;2.00;1.60;;;;;;;10.47;56.40;95978.78;5035454;28;20491;-68
2024/03/11 04:07:57;;;;;;;2.70;1.60;;;;;;;10.44;57.04;95973.94;5042117;28;20449;-71
2024/03/11 04:10:23;;;;;;;1.70;1.60;;;;;;;10.41;57.06;95980.34;5035770;28;20434;-71
2024/03/11 04:12:51;;;;;;;2.10;1.57;;;;;;;10.33;56.36;95979.59;5029966;28;20496;-70
2024/03/11 04:15:21;;;;;;;1.80;1.70;;;;;;;10.23;56.72;95975.44;5034215;28;20568;-70
2024/03/11 04:17:53;;;;;;;2.10;1.33;;;;;;;10.14;57.43;95973.91;5033775;28;20462;-70
2024/03/11 04:20:29;;;;;;;3.47;1.47;;;;;;;10.14;57.62;95984.38;5026802;28;21046;-68
2024/03/11 04:22:55;;;;;;;1.83;1.70;;;;;;;10.01;57.57;95978.94;5028827;28;20425;-71
2024/03/11 04:25:23;;;;;;;3.00;1.53;;;;;;;10.09;57.36;95976.22;5040008;28;20998;-69
2024/03/11 04:27:50;;;;;;;1.50;1.40;;;;;;;10.02;57.26;95977.94;5018577;28;20458;-70
2024/03/11 04:30:22;;;;;;;2.33;1.50;;;;;;;10.06;57.66;95984.47;5029458;28;20962;-69
2024/03/11 04:32:51;;;;;;;3.20;2.10;;;;;;;10.02;56.75;95980.56;4990216;28;20426;-69
2024/03/11 04:35:24;;;;;;;1.80;1.40;;;;;;;9.95;57.59;95986.53;5045130;28;20958;-69
2024/03/11 04:37:54;;;;;;;1.73;1.63;;;;;;;9.96;57.17;95985.50;5014951;28;20457;-70
2024/03/11 04:40:19;;;;;;;3.23;1.67;;;;;;;9.94;57.74;95984.91;5019126;28;20462;-70
2024/03/11 04:42:46;;;;;;;1.80;1.70;;;;;;;9.94;57.58;95987.50;5026291;28;20427;-71
2024/03/11 04:45:12;;;;;;;2.60;1.80;;;;;;;9.91;57.42;95993.09;5005664;28;20438;-72
2024/03/11 04:47:38;;;;;;;2.27;2.03;;;;;;;10.00;57.20;95993.84;5035860;28;20485;-70
2024/03/11 04:50:05;;;;;;;4.07;1.73;;;;;;;9.98;56.94;95990.59;5046703;28;20571;-69
2024/03/11 04:52:31;;;;;;;2.10;1.90;;;;;;;9.93;56.97;95993.75;5036527;28;20190;-69
2024/03/11 04:54:57;;;;;;;2.17;1.70;;;;;;;9.92;56.90;95994.72;5021422;28;20517;-70
2024/03/11 04:57:25;;;;;;;3.90;2.10;;;;;;;9.83;57.11;96003.63;5025005;28;20203;-69
2024/03/11 04:59:51;;;;;;;1.97;1.87;;;;;;;9.77;57.34;96002.53;5045910;28;20183;-69
2024/03/11 05:02:17;;;;;;;2.13;1.70;;;;;;;9.71;57.05;95998.00;5031188;28;20553;-69
2024/03/11 05:04:42;;;;;;;1.90;1.80;;;;;;;9.53;58.11;96000.94;5025472;28;20513;-69
2024/03/11 05:07:08;;;;;;;4.43;1.77;;;;;;;9.51;58.09;96006.31;5043807;28;20644;-72
2024/03/11 05:09:34;;;;;;;2.20;2.07;;;;;;;9.46;58.00;96010.44;5036838;28;20186;-70
2024/03/11 05:12:00;;;;;;;1.80;1.70;;;;;;;9.48;57.99;96011.91;5038428;28;20425;-70
2024/03/11 05:14:25;;;;;;;2.60;1.80;;;;;;;9.49;57.80;96007.50;5024014;28;20457;-69
2024/03/11 05:16:54;;;;;;;2.43;2.07;;;;;;;9.45;58.31;96007.03;5030235;28;20303;-67
2024/03/11 05:19:20;;;;;;;2.73;1.97;;;;;;;9.45;57.86;96012.25;5030594;28;20182;-69
2024/03/11 05:21:45;;;;;;;2.73;1.63;;;;;;;9.55;58.42;96017.28;5029083;28;20835;-72
2024/03/11 05:24:11;;;;;;;3.00;2.03;;;;;;;9.58;57.79;96016.91;5040425;28;20286;-68
2024/03/11 05:26:36;;;;;;;2.23;1.73;;;;;;;9.32;57.78;96023.31;5027769;28;20210;-70
2024/03/11 05:29:02;;;;;;;2.20;1.80;;;;;;;9.44;58.43;96026.31;5039849;28;20270;-71
2024/03/11 05:31:27;;;;;;;2.30;2.10;;;;;;;9.42;58.14;96023.06;5036104;28;20696;-70
2024/03/11 05:33:53;;;;;;;6.20;2.13;;;;;;;9.43;57.72;96034.34;5039343;28;20187;-71
2024/03/11 05:36:18;;;;;;;1.90;1.80;;;;;;;9.47;58.25;96036.44;5030098;28;20194;-70
2024/03/11 05:38:44;;;;;;;3.97;1.83;;;;;;;9.48;58.37;96035.47;5028110;28;20294;-70
2024/03/11 05:41:09;;;;;;;2.07;1.50;;;;;;;9.51;58.60;96036.91;5023321;28;20205;-70
2024/03/11 05:43:35;;;;;;;1.83;1.73;;;;;;;9.54;57.80;96026.09;5038303;28;20597;-70
2024/03/11 05:46:01;;;;;;;2.00;1.80;;;;;;;9.53;57.70;96035.72;5037646;28;20184;-70
2024/03/11 05:48:26;;;;;;;2.00;1.90;;;;;;;9.44;57.52;96034.16;5032618;28;20951;-69
2024/03/11 05:51:01;;;;;;;3.00;2.00;;;;;;;9.50;58.27;96041.34;5029779;28;20186;-70
2024/03/11 05:53:28;;;;;;;2.40;2.03;;;;;;;9.54;57.68;96041.78;5027957;28;20191;-70
2024/03/11 05:55:54;;;;;;;2.77;2.27;;;;;;;9.51;57.68;96045.56;5027243;28;20477;-70
2024/03/11 05:58:26;;;;;;;6.53;4.00;;;;;;;9.56;57.95;96058.13;5031080;28;20857;-68
2024/03/11 06:00:52;;;;;;;3.03;2.70;;;;;;;9.52;57.63;96062.06;5025972;28;20834;-69
2024/03/11 06:03:18;;;;;;;7.77;3.27;;;;;;;9.45;57.81;96066.38;5032875;28;20432;-70
2024/03/11 06:05:44;;;;;;;5.40;4.07;;;;;;;9.47;57.55;96069.63;5036335;28;20509;-69
2024/03/11 06:08:09;;;;;;;4.87;3.53;;;;;;;9.29;58.25;96070.72;5027650;28;20864;-70
2024/03/11 06:10:35;;;;;;;3.20;2.23;;;;;;;9.28;58.52;96082.16;5027380;28;20256;-69
2024/03/11 06:13:01;;;;;;;5.20;2.50;;;;;;;9.50;58.48;96082.34;5038485;28;20187;-71
2024/03/11 06:15:27;;;;;;;2.53;2.33;;;;;;;9.84;58.23;96088.97;5028909;28;20622;-70
2024/03/11 06:17:53;;;;;;;2.83;2.53;;;;;;;10.26;57.10;96092.13;5050568;28;20604;-69
2024/03/11 06:20:20;;;;;;;2.40;2.20;;;;;;;10.53;55.52;96093.34;5032683;28;20190;-71
2024/03/11 06:22:45;;;;;;;2.00;1.90;;;;;;;10.69;55.27;96102.03;5026870;28;20203;-71
2024/03/11 06:25:11;;;;;;;3.93;2.33;;;;;;;10.82;55.04;96096.16;5027211;28;20434;-69
2024/03/11 06:27:37;;;;;;;2.23;2.03;;;;;;;10.93;54.96;96098.31;5027535;28;20204;-71
2024/03/11 06:30:04;;;;;;;2.87;2.50;;;;;;;10.72;54.57;96105.09;5030143;28;20557;-72
2024/03/11 06:32:30;;;;;;;2.50;2.10;;;;;;;10.90;54.59;96104.75;5038680;28;20182;-71
2024/03/11 06:34:59;;;;;;;2.43;2.23;;;;;;;11.08;54.04;96111.44;5029588;28;20426;-70
2024/03/11 06:37:24;;;;;;;3.33;2.20;;;;;;;11.17;54.08;96118.22;5037815;28;20454;-70
2024/03/11 06:39:49;;;;;;;2.07;1.80;;;;;;;11.29;53.49;96120.34;5037418;28;20513;-70
2024/03/11 06:42:15;;;;;;;2.43;1.83;;;;;;;11.46;53.45;96129.66;5035128;28;20211;-72
2024/03/11 06:44:40;;;;;;;4.27;2.57;;;;;;;11.64;53.15;96121.38;5029157;28;20179;-70
2024/03/11 06:47:09;;;;;;;2.33;2.13;;;;;;;11.73;52.12;96129.94;5027966;28;20555;-70
2024/03/11 06:49:34;;;;;;;2.80;2.47;;;;;;;11.79;52.47;96125.75;5032022;28;20190;-70
2024/03/11 06:52:01;;;;;;;1.70;1.53;;;;;;;11.98;51.74;96134.84;5032055;28;20430;-71
2024/03/11 06:54:26;;;;;;;2.07;1.80;;;;;;;12.08;52.01;96137.19;5026260;28;20195;-72
2024/03/11 06:56:52;;;;;;;2.77;2.17;;;;;;;12.28;51.05;96139.97;5019343;28;20441;-71
2024/03/11 06:59:17;;;;;;;2.10;2.00;;;;;;;12.38;50.99;96150.19;5026730;28;20183;-71
2024/03/11 07:01:43;;;;;;;2.30;2.10;;;;;;;12.46;50.38;96159.75;5031658;28;20208;-70
2024/03/11 07:04:11;;;;;;;1.83;1.47;;;;;;;12.27;50.01;96162.00;5029297;28;20207;-69
2024/03/11 07:06:39;;;;;;;3.93;1.57;;;;;;;12.12;50.26;96154.19;5034484;28;20195;-72
2024/03/11 07:09:05;;;;;;;4.23;1.97;;;;;;;11.78;50.47;96159.06;5029043;28;20427;-70
2024/03/11 07:11:31;;;;;;;2.07;1.87;;;;;;;12.13;50.22;96161.88;5026699;28;20424;-72
2024/03/11 07:13:57;;;;;;;1.70;1.50;;;;;;;12.16;50.43;96167.75;5036441;28;20433;-70
2024/03/11 07:16:23;;;;;;;1.73;1.63;;;;;;;11.99;50.75;96157.47;5030925;28;20191;-69
2024/03/11 07:18:52;;;;;;;2.13;1.80;;;;;;;11.92;51.35;96159.22;5029010;28;20453;-71
2024/03/11 07:21:17;;;;;;;1.87;1.60;;;;;;;11.80;51.61;96162.31;5028229;28;20227;-71
2024/03/11 07:23:43;;;;;;;1.93;1.60;;;;;;;11.74;51.37;96162.25;5030606;28;20437;-71
2024/03/11 07:26:10;;;;;;;1.77;1.50;;;;;;;11.83;51.34;96153.25;5030697;28;20207;-68
2024/03/11 07:28:35;;;;;;;4.50;1.70;;;;;;;11.90;51.39;96161.19;5033035;28;20207;-71
2024/03/11 07:31:01;;;;;;;1.60;1.50;;;;;;;11.94;51.69;96162.47;5044455;28;20497;-69
2024/03/11 07:33:26;;;;;;;3.60;1.40;;;;;;;11.82;51.16;96165.59;5038923;28;20802;-71
2024/03/11 07:35:53;;;;;;;3.43;1.30;;;;;;;11.90;51.23;96176.97;5033069;28;20606;-71
2024/03/11 07:38:19;;;;;;;2.40;1.60;;;;;;;11.81;51.68;96171.84;5037721;28;20298;-71
2024/03/11 07:40:45;;;;;;;3.33;1.70;;;;;;;11.99;51.75;96173.25;5033908;28;20519;-69
2024/03/11 07:43:10;;;;;;;1.70;1.60;;;;;;;12.10;51.74;96179.81;5033265;28;20429;-70
2024/03/11 07:45:37;;;;;;;2.00;1.40;;;;;;;12.07;51.74;96186.28;5039456;28;20441;-70
2024/03/11 07:48:04;;;;;;;2.00;1.40;;;;;;;12.05;51.99;96190.06;5039423;28;20252;-70
2024/03/11 07:50:29;;;;;;;1.47;1.37;;;;;;;12.04;51.69;96189.25;5031290;28;20437;-70
2024/03/11 07:52:55;;;;;;;3.23;1.20;;;;;;;11.95;51.77;96211.34;5033865;28;20426;-69
2024/03/11 07:55:22;;;;;;;1.10;1.00;;;;;;;11.93;51.87;96208.09;5033286;28;20187;-71
2024/03/11 07:57:48;;;;;;;1.77;1.30;;;;;;;11.84;51.80;96208.19;5032724;28;20211;-70
2024/03/11 08:00:18;;;;;;;2.67;1.37;;;;;;;11.79;52.40;96218.44;5001881;28;20426;-70
2024/03/11 08:02:50;;;;;;;1.10;1.00;;;;;;;11.90;51.99;96219.78;5029829;28;20426;-71
2024/03/11 08:05:17;;;;;;;2.30;1.43;;;;;;;11.92;52.26;96217.78;5035256;28;20529;-71
2024/03/11 08:07:47;;;;;;;3.53;1.33;;;;;;;11.98;51.46;96224.13;5024621;28;20462;-70
2024/03/11 08:10:13;;;;;;;2.17;1.10;;;;;;;11.98;51.41;96221.50;5039504;28;20429;-68
2024/03/11 08:12:39;;;;;;;1.33;0.90;;;;;;;12.24;50.64;96215.72;5030394;28;20978;-71
2024/03/11 08:15:11;;;;;;;1.53;1.03;;;;;;;12.59;50.24;96222.94;5035060;28;20198;-71
2024/03/11 08:17:37;;;;;;;1.30;1.10;;;;;;;12.88;50.20;96213.22;5032740;28;21083;-70
2024/03/11 08:20:04;;;;;;;1.80;1.00;;;;;;;13.16;49.03;96222.94;5038527;28;20438;-71
2024/03/11 08:22:30;;;;;;;1.20;1.10;;;;;;;13.50;48.18;96218.69;5033303;28;20211;-70
2024/03/11 08:24:56;;;;;;;3.63;1.10;;;;;;;13.39;47.49;96220.06;5031545;28;20423;-69
2024/03/11 08:27:22;;;;;;;2.50;1.10;;;;;;;13.66;47.58;96209.69;5038021;28;20207;-71
2024/03/11 08:29:48;;;;;;;1.30;1.10;;;;;;;14.07;47.59;96223.81;5032134;28;20492;-71
2024/03/11 08:32:13;;;;;;;1.60;1.00;;;;;;;14.47;46.60;96213.34;5032794;28;20205;-69
2024/03/11 08:34:39;;;;;;;1.60;1.10;;;;;;;14.69;45.81;96221.09;5040305;28;20187;-70
2024/03/11 08:37:05;;;;;;;1.23;0.80;;;;;;;14.95;44.55;96224.75;5029884;28;20306;-70
2024/03/11 08:39:30;;;;;;;2.80;0.80;;;;;;;15.20;44.35;96222.25;5030704;28;20227;-71
2024/03/11 08:41:57;;;;;;;1.80;0.93;;;;;;;15.15;44.14;96217.59;5036086;28;20243;-67
2024/03/11 08:44:23;;;;;;;1.20;0.80;;;;;;;15.37;43.39;96222.66;5030426;28;20719;-68
2024/03/11 08:46:50;;;;;;;1.83;0.83;;;;;;;15.67;42.86;96214.22;5029636;28;20455;-71
2024/03/11 08:49:15;;;;;;;2.20;0.90;;;;;;;15.92;43.09;96218.84;5030266;28;20192;-70
2024/03/11 08:51:41;;;;;;;3.73;0.90;;;;;;;16.07;42.41;96231.75;5029798;28;20840;-72
2024/03/11 08:54:07;;;;;;;1.63;0.83;;;;;;;15.82;41.96;96235.91;5033186;28;20184;-71
2024/03/11 08:56:33;;;;;;;1.53;0.87;;;;;;;16.38;42.34;96238.91;5030086;28;20535;-70
2024/03/11 08:59:00;;;;;;;4.73;0.90;;;;;;;16.58;40.87;96238.00;5039261;28;20468;-71
2024/03/11 09:01:26;;;;;;;0.90;0.70;;;;;;;16.94;40.93;96247.13;5036928;28;20684;-70
2024/03/11 09:03:51;;;;;;;1.93;0.80;;;;;;;17.14;39.59;96254.06;5038505;28;20453;-72
2024/03/11 09:06:17;;;;;;;2.63;0.80;;;;;;;17.41;38.85;96261.75;5031337;28;20712;-71
2024/03/11 09:08:44;;;;;;;2.00;0.90;;;;;;;17.62;39.15;96265.84;5029579;28;20302;-71
2024/03/11 09:11:11;;;;;;;1.93;0.90;;;;;;;17.74;37.85;96268.56;5029084;28;20184;-69
2024/03/11 09:13:40;;;;;;;1.40;0.73;;;;;;;17.64;38.09;96277.81;5030283;28;20435;-72
2024/03/11 09:16:05;;;;;;;1.40;0.90;;;;;;;17.42;38.84;96272.16;5031047;28;20422;-71
2024/03/11 09:18:32;;;;;;;1.20;0.80;;;;;;;17.72;38.59;96273.28;5029931;28;20500;-72
2024/03/11 09:20:57;;;;;;;1.30;0.90;;;;;;;18.30;38.65;96266.72;5034077;28;20195;-70
2024/03/11 09:23:23;;;;;;;8.93;1.10;;;;;;;18.70;38.15;96278.59;5036724;28;20428;-72
2024/03/11 09:25:49;;;;;;;1.10;0.80;;;;;;;18.40;36.60;96276.75;5041506;28;20215;-71
2024/03/11 09:28:17;;;;;;;2.00;0.87;;;;;;;18.48;36.80;96280.94;5031354;28;20299;-69
2024/03/11 09:30:43;;;;;;;1.00;0.77;;;;;;;18.70;36.29;96273.28;5033716;28;20176;-72
2024/03/11 09:33:11;;;;;;;2.30;0.80;;;;;;;18.69;36.09;96276.97;5037351;28;20419;-69
2024/03/11 09:35:36;;;;;;;1.20;0.90;;;;;;;18.91;36.75;96273.78;5030083;28;20184;-72
2024/03/11 09:38:02;;;;;;;1.20;0.70;;;;;;;18.79;35.49;96266.59;5028907;28;20533;-71
2024/03/11 09:40:33;;;;;;;1.73;0.60;;;;;;;18.96;35.86;96271.28;5025967;28;20175;-69
2024/03/11 09:42:58;;;;;;;1.73;0.80;;;;;;;19.20;35.12;96277.47;5029409;28;20528;-70
2024/03/11 09:45:27;;;;;;;1.87;0.73;;;;;;;19.27;34.56;96269.38;5030979;28;20513;-69
2024/03/11 09:47:56;;;;;;;1.20;0.70;;;;;;;19.76;35.21;96279.72;5032480;28;20210;-71
2024/03/11 09:50:30;;;;;;;1.10;0.73;;;;;;;19.85;34.10;96277.53;5026923;28;20427;-71
2024/03/11 09:53:07;;;;;;;1.87;1.00;;;;;;;20.27;33.19;96290.63;5035828;28;20417;-71
2024/03/11 09:55:33;;;;;;;3.03;0.70;;;;;;;20.65;33.73;96291.88;5031080;28;20429;-71
2024/03/11 09:58:10;;;;;;;1.20;0.70;;;;;;;21.01;33.09;96291.69;5041084;28;20438;-70
2024/03/11 10:00:48;;;;;;;1.30;0.70;;;;;;;21.36;32.32;96295.94;5026792;28;20846;-71
2024/03/11 10:03:13;;;;;;;1.90;0.60;;;;;;;21.46;31.58;96293.47;5029677;28;20422;-70
2024/03/11 10:05:40;;;;;;;1.87;0.87;;;;;;;21.14;31.12;96294.03;5032140;28;20521;-70
2024/03/11 10:08:06;;;;;;;1.00;0.60;;;;;;;21.15;31.93;96300.19;5028351;28;20275;-71
2024/03/11 10:10:32;;;;;;;1.00;0.70;;;;;;;21.54;31.36;96294.91;5028112;28;20796;-70
2024/03/11 10:12:58;;;;;;;1.43;0.70;;;;;;;21.92;32.01;96295.97;5026380;28;20625;-70
2024/03/11 10:15:32;;;;;;;2.10;0.90;;;;;;;22.24;30.97;96300.63;5027916;28;20480;-71
2024/03/11 10:18:31;;;;;;;1.40;0.80;;;;;;;22.37;30.72;96301.31;5024105;28;20572;-69
2024/03/11 10:21:00;;;;;;;1.53;0.60;;;;;;;22.51;30.75;96307.06;5020239;28;20470;-70
2024/03/11 10:23:26;;;;;;;4.97;0.80;;;;;;;22.19;29.84;96310.44;5034604;28;20487;-70
2024/03/11 10:26:17;;;;;;;1.57;0.90;;;;;;;21.43;29.99;96319.78;5044049;28;21013;-72
2024/03/11 10:28:49;;;;;;;1.37;0.63;;;;;;;20.94;31.35;96313.13;5021634;28;20824;-71
2024/03/11 10:31:31;;;;;;;1.20;0.70;;;;;;;20.48;31.43;96314.97;5026795;28;20980;-71
2024/03/11 10:34:16;;;;;;;2.83;0.80;;;;;;;20.50;32.25;96318.19;5028139;28;20433;-71
2024/03/11 10:36:44;;;;;;;4.33;1.63;;;;;;;20.86;32.10;96309.00;5026877;28;20473;-69
2024/03/11 10:41:52;;;;;;;1.43;0.80;;;;;;;20.86;31.79;96316.22;5023493;28;21013;-70
2024/03/11 10:44:23;;;;;;;1.10;0.97;;;;;;;20.99;31.43;96313.25;5044265;28;20439;-72
2024/03/11 10:46:53;;;;;;;2.00;1.00;;;;;;;20.70;31.49;96313.25;5029260;28;20954;-70
2024/03/11 10:49:21;;;;;;;1.30;0.73;;;;;;;20.28;31.72;96313.53;5027927;28;20524;-72
2024/03/11 10:51:47;;;;;;;1.50;0.90;;;;;;;20.32;32.32;96312.00;5027061;28;20554;-69
2024/03/11 10:54:23;;;;;;;1.00;0.70;;;;;;;20.29;31.68;96315.13;5027231;28;20470;-70
2024/03/11 10:56:55;;;;;;;1.47;0.80;;;;;;;19.90;31.37;96323.66;5027213;28;20422;-71
2024/03/11 10:59:30;;;;;;;1.00;0.90;;;;;;;20.05;31.61;96319.72;5038300;28;20426;-71
2024/03/11 11:01:59;;;;;;;1.40;1.10;;;;;;;19.65;32.94;96322.03;5038393;28;20634;-70
2024/03/11 11:04:29;;;;;;;1.53;0.80;;;;;;;19.12;32.45;96329.06;5035974;28;20441;-72
2024/03/11 11:06:58;;;;;;;2.50;0.80;;;;;;;19.46;33.49;96329.31;5031804;28;20419;-73
2024/03/11 11:09:29;;;;;;;1.40;0.80;;;;;;;19.43;32.08;96327.09;5031449;28;20426;-72
2024/03/11 11:11:55;;;;;;;1.93;0.70;;;;;;;19.42;32.24;96327.34;5026926;28;20430;-71
2024/03/11 11:14:24;;;;;;;2.23;1.00;;;;;;;19.75;32.32;96310.00;5045061;28;20438;-70
2024/03/11 11:16:51;;;;;;;1.00;0.80;;;;;;;20.39;31.33;96310.03;5044311;28;20421;-70
2024/03/11 11:19:22;;;;;;;1.97;1.00;;;;;;;20.93;31.02;96292.88;5046316;28;20430;-71
2024/03/11 11:21:51;;;;;;;4.53;0.70;;;;;;;21.56;31.06;96302.66;5035672;28;20461;-70
2024/03/11 11:24:30;;;;;;;1.00;0.77;;;;;;;21.91;29.61;96289.03;5039382;28;20438;-71
2024/03/11 11:27:06;;;;;;;1.43;0.80;;;;;;;21.67;28.30;96287.66;5039502;28;20433;-71
2024/03/11 11:29:31;;;;;;;1.30;0.83;;;;;;;21.91;28.59;96286.38;5029404;28;20430;-73
2024/03/11 11:32:03;;;;;;;3.87;0.90;;;;;;;21.28;29.26;96293.72;5031009;28;20437;-69
2024/03/11 11:34:48;;;;;;;1.20;0.90;;;;;;;20.96;29.41;96297.72;5030876;28;20191;-69
2024/03/11 11:37:33;;;;;;;2.67;0.80;;;;;;;20.52;30.13;96308.91;5038548;28;20449;-69